Terminal Aerodrome Forecast
Issued by NWS Amarillo, TX

Home | Current Version | Previous Version | Text Only | Print | Product List | Glossary On
Versions: 1 2 3 4 5 6 7 8 9 10 11 12 13 14 15 16 17 18 19
303
FTUS44 KAMA 291124
TAFGUY
TAF
KGUY 291124Z 2912/3012 01025G35KT 4SM -SHRA BR OVC006
      TEMPO 2912/2916 1SM -SHRA BR OVC002
     FM291600 35028G38KT 1SM -SHRA BR OVC004
     FM292000 35025G35KT 6SM -SHRA BR OVC015
     FM300300 32015KT P6SM SKC=

USA.gov is the U.S. government's official web portal to all federal, state and local government web resources and services.